createdAt,value
2017-12-31T00:02:17.759Z,1.77
2017-12-31T00:04:44.094Z,3.58
2017-12-31T00:07:10.707Z,0.80
2017-12-31T00:09:36.936Z,1.08
2017-12-31T00:12:03.222Z,1.25
2017-12-31T00:14:29.466Z,0.93
2017-12-31T00:16:56.955Z,0.80
2017-12-31T00:19:23.857Z,1.98
2017-12-31T00:21:50.177Z,0.90
2017-12-31T00:24:16.559Z,2.60
2017-12-31T00:26:42.808Z,2.62
2017-12-31T00:29:09.940Z,2.80
2017-12-31T00:31:36.211Z,4.68
2017-12-31T00:34:02.495Z,6.53
2017-12-31T00:36:29.113Z,10.02
2017-12-31T00:38:55.393Z,28.90
2017-12-31T00:41:21.636Z,18.80
2017-12-31T00:43:47.863Z,44.30
2017-12-31T00:46:14.403Z,40.85
2017-12-31T00:48:41.584Z,40.65
2017-12-31T00:51:07.792Z,48.45
2017-12-31T00:53:34.660Z,44.42
2017-12-31T00:56:00.902Z,42.75
2017-12-31T00:58:27.142Z,45.45
2017-12-31T01:00:53.759Z,45.03
2017-12-31T01:03:20.079Z,46.72
2017-12-31T01:05:46.307Z,48.35
2017-12-31T01:08:13.562Z,50.83
2017-12-31T01:10:39.992Z,52.65
2017-12-31T01:13:06.280Z,53.47
2017-12-31T01:15:32.495Z,58.13
2017-12-31T01:17:58.970Z,59.90
2017-12-31T01:20:25.203Z,64.60
2017-12-31T01:22:51.473Z,67.25
2017-12-31T01:25:17.720Z,64.37
2017-12-31T01:27:44.806Z,65.28
2017-12-31T01:30:11.056Z,65.25
2017-12-31T01:32:37.286Z,65.05
2017-12-31T01:35:03.561Z,65.45
2017-12-31T01:37:29.812Z,64.70
2017-12-31T01:39:56.078Z,66.72
2017-12-31T01:42:22.361Z,65.30
2017-12-31T01:44:48.618Z,67.57
2017-12-31T01:47:14.816Z,65.93
2017-12-31T01:49:41.089Z,66.30
2017-12-31T01:52:07.347Z,63.97
2017-12-31T01:54:33.594Z,66.05
2017-12-31T01:56:59.835Z,65.65
2017-12-31T01:59:26.098Z,64.32
2017-12-31T02:01:52.331Z,65.53
2017-12-31T02:04:18.547Z,67.28
2017-12-31T02:06:44.800Z,84.70
2017-12-31T02:09:11.391Z,111.18
2017-12-31T02:11:37.667Z,195.90
2017-12-31T02:14:03.916Z,183.27
2017-12-31T02:16:30.121Z,110.97
2017-12-31T02:18:56.721Z,121.72
2017-12-31T02:21:22.976Z,131.07
2017-12-31T02:23:49.227Z,218.73
2017-12-31T02:26:15.478Z,156.10
2017-12-31T02:28:41.746Z,142.07
2017-12-31T02:31:08.357Z,194.25
2017-12-31T02:33:34.574Z,161.18
2017-12-31T02:36:00.799Z,128.52
2017-12-31T02:38:27.053Z,131.10
2017-12-31T02:40:53.273Z,103.43
2017-12-31T02:43:19.508Z,84.18
2017-12-31T02:45:45.739Z,95.97
2017-12-31T02:48:11.965Z,86.82
2017-12-31T02:50:38.193Z,78.55
2017-12-31T02:53:04.482Z,73.50
2017-12-31T02:55:30.721Z,68.78
2017-12-31T02:57:56.924Z,66.95
2017-12-31T03:00:24.445Z,67.30
2017-12-31T03:02:50.661Z,84.35
2017-12-31T03:05:16.901Z,67.45
2017-12-31T03:07:43.117Z,77.85
2017-12-31T03:10:09.343Z,65.50
2017-12-31T03:12:35.580Z,76.30
2017-12-31T03:15:01.789Z,85.72
2017-12-31T03:17:28.022Z,90.43
2017-12-31T03:19:54.905Z,124.90
2017-12-31T03:22:21.136Z,81.22
2017-12-31T03:24:47.378Z,83.55
2017-12-31T03:27:13.632Z,93.30
2017-12-31T03:29:39.869Z,75.18
2017-12-31T03:32:06.140Z,73.03
2017-12-31T03:34:32.412Z,95.87
2017-12-31T03:36:58.636Z,89.32
2017-12-31T03:39:24.864Z,185.95
2017-12-31T03:41:51.102Z,232.02
2017-12-31T03:44:17.337Z,137.45
2017-12-31T03:46:43.586Z,167.00
2017-12-31T03:49:09.800Z,171.02
2017-12-31T03:51:36.026Z,222.00
2017-12-31T03:54:02.249Z,216.15
2017-12-31T03:56:28.499Z,179.65
2017-12-31T03:58:54.698Z,144.70
2017-12-31T04:01:20.908Z,131.63
2017-12-31T04:03:47.140Z,125.12
2017-12-31T04:06:13.381Z,105.65
2017-12-31T04:08:39.587Z,154.02
2017-12-31T04:11:06.183Z,97.40
2017-12-31T04:13:32.431Z,113.15
2017-12-31T04:15:58.654Z,197.70
2017-12-31T04:18:24.893Z,98.37
2017-12-31T04:20:51.470Z,144.48
2017-12-31T04:23:17.719Z,119.25
2017-12-31T04:25:43.935Z,99.43
2017-12-31T04:28:10.153Z,103.25
2017-12-31T04:30:36.404Z,73.05
2017-12-31T04:33:02.658Z,85.20
2017-12-31T04:35:28.886Z,75.85
2017-12-31T04:37:55.094Z,78.00
2017-12-31T04:40:22.293Z,86.70
2017-12-31T04:42:48.546Z,73.45
2017-12-31T04:45:15.350Z,141.43
2017-12-31T04:47:41.958Z,173.27
2017-12-31T04:50:08.194Z,130.12
2017-12-31T04:52:34.460Z,151.48
2017-12-31T04:55:00.658Z,115.70
2017-12-31T04:57:26.932Z,80.40
2017-12-31T04:59:53.972Z,74.93
2017-12-31T05:02:20.167Z,85.12
2017-12-31T05:04:46.782Z,86.45
2017-12-31T05:07:12.989Z,88.55
2017-12-31T05:09:39.253Z,70.82
2017-12-31T05:12:05.531Z,70.93
2017-12-31T05:14:31.769Z,354.73
2017-12-31T05:16:58.672Z,91.72
2017-12-31T05:19:24.919Z,159.23
2017-12-31T05:21:51.189Z,76.82
2017-12-31T05:24:17.406Z,87.80
2017-12-31T05:26:43.616Z,74.70
2017-12-31T05:29:09.866Z,80.05
2017-12-31T05:31:36.146Z,74.25
2017-12-31T05:34:02.762Z,383.42
2017-12-31T05:36:29.394Z,182.43
2017-12-31T05:38:55.610Z,220.43
2017-12-31T05:41:21.803Z,29.75
2017-12-31T05:43:48.021Z,15.15
2017-12-31T05:46:14.268Z,13.15
2017-12-31T05:48:40.513Z,9.45
2017-12-31T05:51:06.719Z,6.65
2017-12-31T05:53:32.974Z,5.25
2017-12-31T05:55:59.182Z,9.25
2017-12-31T05:58:25.395Z,7.03
2017-12-31T06:00:51.641Z,7.45
2017-12-31T06:03:17.854Z,2.85
2017-12-31T06:05:44.082Z,6.93
2017-12-31T06:08:10.342Z,3.20
2017-12-31T06:10:39.598Z,5.55
2017-12-31T06:15:37.093Z,6.20
2017-12-31T06:18:05.764Z,5.47
2017-12-31T06:20:31.984Z,3.35
2017-12-31T06:22:58.268Z,4.45
2017-12-31T06:25:24.484Z,3.50
2017-12-31T06:27:50.760Z,2.65
2017-12-31T06:30:16.986Z,4.15
2017-12-31T06:32:43.600Z,4.57
2017-12-31T06:35:09.829Z,5.87
2017-12-31T06:37:36.097Z,4.95
2017-12-31T06:40:02.383Z,2.65
2017-12-31T06:42:28.627Z,3.05
2017-12-31T06:44:55.261Z,3.25
2017-12-31T06:47:21.877Z,4.72
2017-12-31T06:49:48.094Z,3.30
2017-12-31T06:52:14.348Z,5.97
2017-12-31T06:54:40.613Z,3.20
2017-12-31T06:57:06.853Z,2.75
2017-12-31T06:59:33.354Z,3.03
2017-12-31T07:01:59.588Z,4.87
2017-12-31T07:04:25.805Z,5.75
2017-12-31T07:06:52.071Z,3.05
2017-12-31T07:09:18.265Z,3.90
2017-12-31T07:11:44.535Z,4.72
2017-12-31T07:14:10.781Z,4.32
2017-12-31T07:16:37.064Z,3.45
2017-12-31T07:19:03.271Z,3.08
2017-12-31T07:21:29.879Z,2.87
2017-12-31T07:23:56.139Z,3.62
2017-12-31T07:26:22.705Z,5.22
2017-12-31T07:28:49.004Z,4.10
2017-12-31T07:31:15.654Z,3.90
2017-12-31T07:33:42.316Z,2.90
2017-12-31T07:36:08.550Z,5.28
2017-12-31T07:38:34.794Z,3.40
2017-12-31T07:41:01.027Z,6.40
2017-12-31T07:43:27.263Z,2.92
2017-12-31T07:45:53.531Z,4.10
2017-12-31T07:48:19.752Z,1.85
2017-12-31T07:50:46.010Z,4.62
2017-12-31T07:53:12.236Z,4.22
2017-12-31T07:55:38.495Z,5.32
2017-12-31T07:58:04.769Z,4.05
2017-12-31T08:00:31.368Z,1.90
2017-12-31T08:02:57.663Z,5.43
2017-12-31T08:05:23.891Z,3.85
2017-12-31T08:07:50.119Z,4.78
2017-12-31T08:10:16.398Z,2.28
2017-12-31T08:12:42.686Z,2.50
2017-12-31T08:15:08.972Z,2.37
2017-12-31T08:17:35.588Z,1.62
2017-12-31T08:20:02.233Z,4.75
2017-12-31T08:22:28.466Z,3.28
2017-12-31T08:24:54.681Z,2.17
2017-12-31T08:27:20.953Z,2.17
2017-12-31T08:29:47.243Z,3.60
2017-12-31T08:32:13.518Z,3.03
2017-12-31T08:34:39.802Z,2.28
2017-12-31T08:37:06.057Z,2.97
2017-12-31T08:39:32.696Z,1.87
2017-12-31T08:41:59.316Z,1.85
2017-12-31T08:44:25.565Z,2.30
2017-12-31T08:46:52.323Z,3.50
2017-12-31T08:49:18.608Z,3.33
2017-12-31T08:51:44.871Z,3.65
2017-12-31T08:54:11.129Z,1.85
2017-12-31T08:56:37.391Z,3.62
2017-12-31T08:59:03.657Z,4.07
2017-12-31T09:01:29.963Z,3.92
2017-12-31T09:03:56.626Z,10.18
2017-12-31T09:06:22.942Z,4.05
2017-12-31T09:08:49.571Z,3.42
2017-12-31T09:11:15.823Z,3.33
2017-12-31T09:13:42.103Z,2.65
2017-12-31T09:16:08.420Z,4.43
2017-12-31T09:18:34.641Z,2.55
2017-12-31T09:21:00.898Z,3.35
2017-12-31T09:23:27.154Z,1.42
2017-12-31T09:25:53.423Z,4.90
2017-12-31T09:28:19.716Z,1.45
2017-12-31T09:30:46.020Z,5.05
2017-12-31T09:33:12.322Z,3.37
2017-12-31T09:35:38.580Z,2.33
2017-12-31T09:38:04.882Z,2.35
2017-12-31T09:40:31.123Z,1.75
2017-12-31T09:42:57.384Z,1.75
2017-12-31T09:45:24.036Z,2.25
2017-12-31T09:47:50.338Z,2.00
2017-12-31T09:50:16.975Z,1.60
2017-12-31T09:52:43.276Z,2.55
2017-12-31T09:55:09.577Z,4.20
2017-12-31T09:57:35.836Z,2.85
2017-12-31T10:00:02.187Z,1.85
2017-12-31T10:02:28.513Z,2.62
2017-12-31T10:04:54.803Z,2.50
2017-12-31T10:07:21.040Z,1.60
2017-12-31T10:09:47.343Z,3.47
2017-12-31T10:12:13.640Z,5.00
2017-12-31T10:14:39.922Z,2.75
2017-12-31T10:17:07.636Z,3.95
2017-12-31T10:19:34.276Z,2.85
2017-12-31T10:22:00.982Z,5.32
2017-12-31T10:24:27.284Z,3.87
2017-12-31T10:26:53.621Z,2.20
2017-12-31T10:29:19.900Z,2.08
2017-12-31T10:31:46.190Z,3.45
2017-12-31T10:34:12.510Z,4.75
2017-12-31T10:36:38.856Z,6.22
2017-12-31T10:39:05.161Z,3.00
2017-12-31T10:41:31.421Z,1.98
2017-12-31T10:43:57.723Z,2.85
2017-12-31T10:46:23.981Z,4.70
2017-12-31T10:48:50.308Z,4.35
2017-12-31T10:51:16.615Z,3.80
2017-12-31T10:53:42.893Z,4.70
2017-12-31T10:56:09.222Z,4.78
2017-12-31T10:58:35.618Z,4.10
2017-12-31T11:01:01.963Z,4.32
2017-12-31T11:03:28.231Z,5.22
2017-12-31T11:05:54.907Z,5.57
2017-12-31T11:08:21.200Z,4.55
2017-12-31T11:10:47.834Z,4.30
2017-12-31T11:13:14.471Z,2.60
2017-12-31T11:15:41.169Z,2.72
2017-12-31T11:18:07.474Z,2.70
2017-12-31T11:20:33.779Z,2.60
2017-12-31T11:23:00.081Z,3.28
2017-12-31T11:25:26.403Z,2.67
2017-12-31T11:27:52.795Z,4.60
2017-12-31T11:30:19.068Z,2.65
2017-12-31T11:32:45.324Z,2.92
2017-12-31T11:35:12.502Z,2.60
2017-12-31T11:37:38.760Z,1.80
2017-12-31T11:40:05.033Z,2.75
2017-12-31T11:42:31.332Z,3.58
2017-12-31T11:44:57.711Z,2.50
2017-12-31T11:47:23.970Z,1.75
2017-12-31T11:49:50.246Z,1.95
2017-12-31T11:52:16.626Z,1.42
2017-12-31T11:54:42.945Z,1.92
2017-12-31T11:57:09.278Z,2.05
2017-12-31T11:59:35.539Z,1.92
2017-12-31T12:02:01.877Z,1.45
2017-12-31T12:04:28.171Z,1.90
2017-12-31T12:06:54.471Z,2.00
2017-12-31T12:09:22.001Z,1.30
2017-12-31T12:11:48.678Z,4.85
2017-12-31T12:14:15.010Z,2.15
2017-12-31T12:16:41.312Z,2.42
2017-12-31T12:19:07.608Z,2.33
2017-12-31T12:21:33.941Z,2.50
2017-12-31T12:24:00.235Z,1.83
2017-12-31T12:26:26.548Z,1.77
2017-12-31T12:28:53.193Z,1.10
2017-12-31T12:31:19.535Z,1.40
2017-12-31T12:33:45.832Z,1.83
2017-12-31T12:36:12.488Z,1.57
2017-12-31T12:38:38.812Z,3.43
2017-12-31T12:41:05.132Z,1.80
2017-12-31T12:43:31.810Z,2.07
2017-12-31T12:45:58.070Z,1.80
2017-12-31T12:48:24.357Z,2.40
2017-12-31T12:50:50.662Z,1.40
2017-12-31T12:53:17.310Z,2.90
2017-12-31T12:55:43.658Z,1.13
2017-12-31T12:58:09.906Z,1.42
2017-12-31T13:00:36.207Z,2.87
2017-12-31T13:03:02.518Z,2.00
2017-12-31T13:05:28.852Z,1.87
2017-12-31T13:07:55.464Z,2.33
2017-12-31T13:10:21.695Z,1.58
2017-12-31T13:12:48.792Z,2.17
2017-12-31T13:15:15.071Z,1.37
2017-12-31T13:17:41.348Z,1.58
2017-12-31T13:20:07.586Z,1.73
2017-12-31T13:22:33.867Z,1.70
2017-12-31T13:25:00.145Z,1.87
2017-12-31T13:27:26.419Z,2.67
2017-12-31T13:29:52.710Z,1.53
2017-12-31T13:32:19.839Z,3.73
2017-12-31T13:34:46.070Z,2.13
2017-12-31T13:37:12.390Z,2.03
2017-12-31T13:39:38.755Z,2.33
2017-12-31T13:42:05.097Z,2.73
2017-12-31T13:44:31.328Z,2.90
2017-12-31T13:46:57.643Z,2.00
2017-12-31T13:49:23.897Z,3.60
2017-12-31T13:51:50.159Z,3.40
2017-12-31T13:54:18.028Z,1.80
2017-12-31T13:56:44.281Z,2.87
2017-12-31T13:59:10.550Z,2.67
2017-12-31T14:01:37.510Z,4.47
2017-12-31T14:04:04.804Z,2.67
2017-12-31T14:06:31.063Z,2.27
2017-12-31T14:08:57.300Z,1.50
2017-12-31T14:11:23.839Z,1.33
2017-12-31T14:13:50.048Z,3.10
2017-12-31T14:16:16.349Z,2.10
2017-12-31T14:18:42.649Z,1.97
2017-12-31T14:21:09.294Z,1.80
2017-12-31T14:23:35.904Z,2.00
2017-12-31T14:26:02.161Z,2.60
2017-12-31T14:28:28.809Z,1.50
2017-12-31T14:30:55.077Z,2.03
2017-12-31T14:33:21.402Z,1.30
2017-12-31T14:35:47.758Z,1.80
2017-12-31T14:38:14.056Z,1.98
2017-12-31T14:40:40.375Z,2.37
2017-12-31T14:43:06.632Z,3.55
2017-12-31T14:45:33.068Z,2.20
2017-12-31T14:47:59.319Z,2.12
2017-12-31T14:50:26.052Z,1.37
2017-12-31T14:52:52.313Z,2.42
2017-12-31T14:55:18.567Z,1.90
2017-12-31T14:57:44.857Z,2.75
2017-12-31T15:00:11.219Z,2.55
2017-12-31T15:02:37.672Z,5.62
2017-12-31T15:05:03.976Z,4.20
2017-12-31T15:07:30.256Z,2.85
2017-12-31T15:09:56.512Z,2.80
2017-12-31T15:12:23.182Z,2.75
2017-12-31T15:14:49.468Z,2.97
2017-12-31T15:17:15.741Z,2.78
2017-12-31T15:19:42.024Z,3.00
2017-12-31T15:22:08.271Z,1.73
2017-12-31T15:24:34.903Z,2.30
2017-12-31T15:27:01.550Z,1.50
2017-12-31T15:29:27.832Z,5.07
2017-12-31T15:31:54.107Z,2.35
2017-12-31T15:34:20.366Z,2.03
2017-12-31T15:36:46.630Z,4.50
2017-12-31T15:39:12.883Z,6.03
2017-12-31T15:41:39.565Z,4.12
2017-12-31T15:44:05.818Z,7.47
2017-12-31T15:46:32.072Z,3.75
2017-12-31T15:48:58.346Z,5.45
2017-12-31T15:51:24.610Z,4.03
2017-12-31T15:53:51.491Z,4.25
2017-12-31T15:56:18.167Z,6.07
2017-12-31T15:58:44.459Z,6.55
2017-12-31T16:01:10.751Z,7.15
2017-12-31T16:03:36.993Z,7.82
2017-12-31T16:06:03.296Z,7.18
2017-12-31T16:08:30.453Z,8.05
2017-12-31T16:10:56.747Z,7.75
2017-12-31T16:13:23.056Z,7.05
2017-12-31T16:15:49.953Z,6.18
2017-12-31T16:18:21.097Z,4.43
2017-12-31T16:20:47.385Z,4.55
2017-12-31T16:23:13.668Z,5.57
2017-12-31T16:25:39.941Z,10.40
2017-12-31T16:28:06.222Z,9.02
2017-12-31T16:30:32.506Z,4.50
2017-12-31T16:32:58.836Z,23.38
2017-12-31T16:35:25.115Z,48.42
2017-12-31T16:37:51.340Z,33.08
2017-12-31T16:40:17.632Z,16.60
2017-12-31T16:42:43.883Z,16.90
2017-12-31T16:45:11.139Z,14.20
2017-12-31T16:47:37.415Z,12.82
2017-12-31T16:50:03.745Z,11.48
2017-12-31T16:52:30.006Z,11.63
2017-12-31T16:54:56.253Z,10.25
2017-12-31T16:57:22.598Z,12.25
2017-12-31T16:59:48.876Z,13.18
2017-12-31T17:02:15.151Z,16.10
2017-12-31T17:04:41.444Z,15.18
2017-12-31T17:07:07.709Z,16.23
2017-12-31T17:09:34.023Z,10.15
2017-12-31T17:12:00.294Z,11.73
2017-12-31T17:14:26.944Z,12.02
2017-12-31T17:16:53.541Z,11.82
2017-12-31T17:19:19.886Z,14.93
2017-12-31T17:21:46.135Z,18.48
2017-12-31T17:24:12.435Z,11.20
2017-12-31T17:26:38.838Z,12.75
2017-12-31T17:29:05.091Z,10.00
2017-12-31T17:31:31.391Z,10.93
2017-12-31T17:33:57.656Z,10.60
2017-12-31T17:36:23.913Z,10.43
2017-12-31T17:38:50.157Z,15.93
2017-12-31T17:41:16.427Z,22.00
2017-12-31T17:43:42.696Z,22.10
2017-12-31T17:46:09.350Z,18.00
2017-12-31T17:48:35.624Z,9.13
2017-12-31T17:51:01.926Z,6.40
2017-12-31T17:53:28.210Z,13.82
2017-12-31T17:55:55.041Z,12.68
2017-12-31T17:58:21.331Z,29.75
2017-12-31T18:00:47.594Z,26.05
2017-12-31T18:03:14.559Z,29.23
2017-12-31T18:05:40.865Z,11.55
2017-12-31T18:08:07.124Z,14.05
2017-12-31T18:10:33.767Z,3.80
2017-12-31T18:13:00.418Z,5.70
2017-12-31T18:15:26.654Z,7.65
2017-12-31T18:17:52.949Z,10.45
2017-12-31T18:20:19.280Z,8.52
2017-12-31T18:22:45.927Z,11.65
2017-12-31T18:25:12.586Z,9.52
2017-12-31T18:27:38.825Z,15.13
2017-12-31T18:30:05.068Z,19.15
2017-12-31T18:32:31.386Z,57.72
2017-12-31T18:34:57.672Z,48.78
2017-12-31T18:37:23.946Z,46.35
2017-12-31T18:39:50.245Z,30.90
2017-12-31T18:42:16.509Z,30.55
2017-12-31T18:44:42.742Z,26.25
2017-12-31T18:47:08.974Z,19.08
2017-12-31T18:49:35.244Z,16.87
2017-12-31T18:52:01.514Z,13.32
2017-12-31T18:54:27.764Z,15.23
2017-12-31T18:56:53.980Z,16.23
2017-12-31T18:59:20.256Z,15.55
2017-12-31T19:01:46.500Z,16.12
2017-12-31T19:04:12.706Z,18.80
2017-12-31T19:06:38.953Z,18.05
2017-12-31T19:09:05.235Z,16.60
2017-12-31T19:11:31.502Z,14.45
2017-12-31T19:13:58.167Z,17.02
2017-12-31T19:16:24.457Z,12.18
2017-12-31T19:18:50.736Z,10.18
2017-12-31T19:21:17.045Z,13.88
2017-12-31T19:23:43.658Z,14.15
2017-12-31T19:26:09.866Z,12.27
2017-12-31T19:28:36.099Z,13.85
2017-12-31T19:31:02.351Z,13.07
2017-12-31T19:33:28.924Z,12.40
2017-12-31T19:35:55.161Z,12.93
2017-12-31T19:38:21.410Z,11.90
2017-12-31T19:40:47.675Z,14.25
2017-12-31T19:43:14.291Z,14.38
2017-12-31T19:45:41.501Z,12.98
2017-12-31T19:48:08.096Z,14.23
2017-12-31T19:50:34.343Z,16.17
2017-12-31T19:53:01.581Z,21.17
2017-12-31T19:55:27.834Z,14.55
2017-12-31T19:57:54.077Z,15.60
2017-12-31T20:00:20.386Z,20.08
2017-12-31T20:02:46.607Z,22.10
2017-12-31T20:05:13.227Z,24.50
2017-12-31T20:07:39.885Z,45.30
2017-12-31T20:10:06.204Z,28.52
2017-12-31T20:12:32.486Z,23.23
2017-12-31T20:14:58.723Z,19.70
2017-12-31T20:17:25.001Z,18.35
2017-12-31T20:19:51.248Z,19.73
2017-12-31T20:22:17.501Z,15.77
2017-12-31T20:24:43.757Z,25.88
2017-12-31T20:27:10.016Z,15.63
2017-12-31T20:29:36.282Z,17.00
2017-12-31T20:32:02.516Z,17.15
2017-12-31T20:34:28.803Z,19.75
2017-12-31T20:36:55.123Z,20.00
2017-12-31T20:39:22.109Z,18.87
2017-12-31T20:41:49.348Z,18.92
2017-12-31T20:44:15.623Z,18.75
2017-12-31T20:46:41.884Z,20.50
2017-12-31T20:49:08.113Z,32.38
2017-12-31T20:51:34.326Z,27.90
2017-12-31T20:54:00.601Z,30.08
2017-12-31T20:56:26.870Z,33.85
2017-12-31T20:58:53.113Z,33.10
2017-12-31T21:01:20.119Z,33.25
2017-12-31T21:03:46.434Z,45.12
2017-12-31T21:06:12.717Z,27.25
2017-12-31T21:08:39.365Z,25.55
2017-12-31T21:11:06.021Z,26.60
2017-12-31T21:13:32.252Z,33.78
2017-12-31T21:15:58.508Z,32.85
2017-12-31T21:18:24.752Z,21.62
2017-12-31T21:20:51.009Z,22.33
2017-12-31T21:23:18.215Z,21.67
2017-12-31T21:25:44.436Z,39.45
2017-12-31T21:28:10.748Z,27.08
2017-12-31T21:30:36.976Z,24.52
2017-12-31T21:33:03.234Z,28.60
2017-12-31T21:35:29.469Z,23.70
2017-12-31T21:37:55.771Z,24.67
2017-12-31T21:40:22.021Z,25.50
2017-12-31T21:42:48.262Z,21.92
2017-12-31T21:45:14.516Z,28.27
2017-12-31T21:47:41.113Z,28.83
2017-12-31T21:50:07.972Z,33.05
2017-12-31T21:52:34.215Z,32.05
2017-12-31T21:55:00.466Z,28.90
2017-12-31T21:57:27.093Z,30.75
2017-12-31T21:59:53.711Z,30.42
2017-12-31T22:02:20.015Z,30.27
2017-12-31T22:04:46.272Z,29.92
2017-12-31T22:07:12.553Z,30.75
2017-12-31T22:09:38.844Z,32.70
2017-12-31T22:12:05.441Z,35.25
2017-12-31T22:14:31.659Z,33.13
2017-12-31T22:16:57.907Z,30.17
2017-12-31T22:19:24.481Z,30.08
2017-12-31T22:21:50.789Z,31.85
2017-12-31T22:24:17.009Z,26.67
2017-12-31T22:26:43.236Z,31.55
2017-12-31T22:29:09.470Z,34.35
2017-12-31T22:31:35.706Z,29.42
2017-12-31T22:34:01.943Z,32.33
2017-12-31T22:36:28.541Z,32.75
2017-12-31T22:38:54.764Z,38.53
2017-12-31T22:41:21.004Z,37.80
2017-12-31T22:43:47.258Z,37.85
2017-12-31T22:46:13.876Z,43.78
2017-12-31T22:48:40.096Z,34.17
2017-12-31T22:51:06.374Z,35.10
2017-12-31T22:53:32.949Z,27.92
2017-12-31T22:55:59.213Z,27.87
2017-12-31T22:58:25.459Z,28.95
2017-12-31T23:00:52.092Z,35.65
2017-12-31T23:03:18.663Z,203.20
2017-12-31T23:05:44.932Z,372.23
2017-12-31T23:08:11.290Z,695.80
2017-12-31T23:10:38.711Z,672.45
2017-12-31T23:13:04.962Z,470.42
2017-12-31T23:15:31.215Z,379.15
2017-12-31T23:17:57.518Z,276.62
2017-12-31T23:20:23.734Z,327.00
2017-12-31T23:22:49.956Z,236.00
2017-12-31T23:25:17.067Z,188.70
2017-12-31T23:27:43.284Z,187.23
2017-12-31T23:30:09.539Z,244.37
2017-12-31T23:32:35.829Z,431.33
2017-12-31T23:35:02.071Z,233.32
2017-12-31T23:37:28.307Z,232.43
2017-12-31T23:39:54.650Z,166.43
2017-12-31T23:42:20.917Z,119.87
2017-12-31T23:44:47.742Z,108.43
2017-12-31T23:47:14.052Z,99.03
2017-12-31T23:49:40.271Z,97.65
2017-12-31T23:52:06.566Z,105.60
2017-12-31T23:54:33.023Z,105.00
2017-12-31T23:56:59.259Z,106.65
2017-12-31T23:59:25.526Z,106.95
